メインページ
METAR-TAF:

METAR-TAF

空港 :

セントジョンズ国際空港

セントジョンズ, ニューファンドランド・ラブラドール州, カナダ

緯度: 47-37N, 経度: 052-44W, 海抜: 134m

現時点の気象観測

当レポートは26分前の19:00(UTC)に作成
東/北東の風 18kt
気温 5°C
湿度 100%
気圧 1012 hPa
視程: 3.2km
高度1400ftの曇り
小雨, 靄

METAR: CYYT 181900Z 06018KT 2SM -RA BR OVC014 05/05 A2987 RMK FG4SC4 SLP121

時間: 16:56 (19:26 UTC)

予報

当レポートは1時間47分前の17:39(UTC)に作成
予報は18日の 18時(UTC)から 19日の 18時(UTC)まで有効
東/北東の風 15kt、最大25ktの突風を伴う
視程: 10km
高度2000ftの雲は散在している
高度3000ftの曇り
小雨
18日の 18時(UTC)から 18日の 22時(UTC)まで一時的に
視程: 4.8km
高度800ftの千切れ雲あり
高度2000ftの曇り
小雨, 靄
18日の 2200時(UTC)から
北東の風 15kt、最大25ktの突風を伴う
視程: 10km
高度1500ftの千切れ雲あり
高度6000ftの曇り
18日の 22時(UTC)から 19日の 06時(UTC)まで一時的に
高度2500ftの千切れ雲あり
高度6000ftの曇り
19日の 0600時(UTC)から
北東の風 12kt、最大22ktの突風を伴う
視程: 10km
高度3000ftの千切れ雲あり

TAF: CYYT 181739Z 1818/1918 07015G25KT P6SM -RA SCT020 OVC030 TEMPO 1818/1822 3SM -RA BR BKN008 OVC020 FM182200 05015G25KT P6SM BKN015 OVC060 TEMPO 1822/1906 BKN025 OVC060 FM190600 05012G22KT P6SM BKN030 RMK NXT FCST BY 190000Z

4,000以上の空港の気象観測と天気予報(METAR報とTAF報)

利用可能な観測所は地図上に黄色い丸と赤い丸で示す。

丸の上にカーソルを重ねると観測所名を参照できる。

次にクリックすると気象観測と天気予報を参照できる。

マップの切り替え:黒色「×」印の緑ボタンをクリックして拡大、「-」印の緑ボタンをクリックして縮小、緑色の三角印をクリックして隣りの地図に切り替え


METAR-TAF: